Map

Track Data

SID SEASON NUMBER BASIN SUBBASIN NAME ISO_TIME NATURE LAT LON WMO_WIND WMO_PRES WMO_AGENCY TRACK_TYPE DIST2LAND LANDFALL IFLAG USA_AGENCY USA_ATCF_ID USA_LAT USA_LON USA_RECORD USA_STATUS USA_WIND USA_PRES USA_SSHS USA_R34_NE USA_R34_SE USA_R34_SW USA_R34_NW USA_R50_NE USA_R50_SE USA_R50_SW USA_R50_NW USA_R64_NE USA_R64_SE USA_R64_SW USA_R64_NW USA_POCI USA_ROCI USA_RMW USA_EYE TOKYO_LAT TOKYO_LON TOKYO_GRADE TOKYO_WIND TOKYO_PRES TOKYO_R50_DIR TOKYO_R50_LONG TOKYO_R50_SHORT TOKYO_R30_DIR TOKYO_R30_LONG TOKYO_R30_SHORT TOKYO_LAND CMA_LAT CMA_LON CMA_CAT CMA_WIND CMA_PRES HKO_LAT HKO_LON HKO_CAT HKO_WIND HKO_PRES NEWDELHI_LAT NEWDELHI_LON NEWDELHI_GRADE NEWDELHI_WIND NEWDELHI_PRES NEWDELHI_CI NEWDELHI_DP NEWDELHI_POCI REUNION_LAT REUNION_LON REUNION_TYPE REUNION_WIND REUNION_PRES REUNION_TNUM REUNION_CI REUNION_RMW REUNION_R34_NE REUNION_R34_SE REUNION_R34_SW REUNION_R34_NW REUNION_R50_NE REUNION_R50_SE REUNION_R50_SW REUNION_R50_NW REUNION_R64_NE REUNION_R64_SE REUNION_R64_SW REUNION_R64_NW BOM_LAT BOM_LON BOM_TYPE BOM_WIND BOM_PRES BOM_TNUM BOM_CI BOM_RMW BOM_R34_NE BOM_R34_SE BOM_R34_SW BOM_R34_NW BOM_R50_NE BOM_R50_SE BOM_R50_SW BOM_R50_NW BOM_R64_NE BOM_R64_SE BOM_R64_SW BOM_R64_NW BOM_ROCI BOM_POCI BOM_EYE BOM_POS_METHOD BOM_PRES_METHOD NADI_LAT NADI_LON NADI_CAT NADI_WIND NADI_PRES WELLINGTON_LAT WELLINGTON_LON WELLINGTON_WIND WELLINGTON_PRES DS824_LAT DS824_LON DS824_STAGE DS824_WIND DS824_PRES TD9636_LAT TD9636_LON TD9636_STAGE TD9636_WIND TD9636_PRES TD9635_LAT TD9635_LON TD9635_WIND TD9635_PRES TD9635_ROCI NEUMANN_LAT NEUMANN_LON NEUMANN_CLASS NEUMANN_WIND NEUMANN_PRES MLC_LAT MLC_LON MLC_CLASS MLC_WIND MLC_PRES USA_GUST BOM_GUST BOM_GUST_PER REUNION_GUST REUNION_GUST_PER USA_SEAHGT USA_SEARAD_NE USA_SEARAD_SE USA_SEARAD_SW USA_SEARAD_NW STORM_SPEED STORM_DIR
1945072S14151 1945 16 SP EA NOT_NAMED 1945-03-12 23:00:00 NR -13.7000 151.300 1000 bom main 349 347 ______O___O___ -1 -13.8000 151.200 1000 -13.6000 151.400 7 5 242
1945072S14151 1945 16 SP EA NOT_NAMED 1945-03-13 00:00:00 TS -13.7374 151.229 main 347 347 O_____P__OP___ jtwc_sh SH101945 -13.7000 151.300 -1 -13.8276 151.132 -13.8000 151.100 TC 30 1000 -13.6534 151.321 7 5 240
1945072S14151 1945 16 SP EA NOT_NAMED 1945-03-13 03:00:00 TS -13.8652 151.004 main 364 362 P_____P__PP___ SH101945 -13.8626 151.050 -1 -13.9102 150.928 -13.8827 150.911 TC -13.8119 151.081 7 5 241
1945072S14151 1945 16 SP EA NOT_NAMED 1945-03-13 06:00:00 TS -13.9837 150.777 main 372 370 O_____P__PP___ jtwc_sh SH101945 -14.0000 150.800 -1 -13.9917 150.726 -13.9646 150.722 TC -13.9654 150.835 7 5 244
1945072S14151 1945 16 SP EA NOT_NAMED 1945-03-13 09:00:00 TS -14.0853 150.549 main 380 380 P_____P__PP___ SH101945 -14.1000 150.550 -1 -14.0714 150.527 -14.0450 150.537 TC -14.1102 150.579 7 5 246
1945072S14151 1945 16 SP EA NOT_NAMED 1945-03-13 11:00:00 TS -14.1495 150.396 main 380 380 P_____P__PO___ SH101945 -14.1636 150.383 -1 -14.1232 150.398 -14.0974 150.415 TC -14.2000 150.400 7 5 246
1945072S14151 1945 16 SP EA NOT_NAMED 1945-03-13 12:00:00 TS -14.1829 150.320 main 391 391 O_____P__PP___ jtwc_sh SH101945 -14.2000 150.300 -1 -14.1487 150.335 -14.1231 150.356 TC -14.2425 150.308 7 5 243
1945072S14151 1945 16 SP EA NOT_NAMED 1945-03-13 15:00:00 TS -14.2992 150.091 main 403 403 P_____P__PP___ SH101945 -14.3575 150.050 -1 -14.2228 150.149 -14.1984 150.180 TC -14.3601 150.029 7 5 243
1945072S14151 1945 16 SP EA NOT_NAMED 1945-03-13 18:00:00 TS -14.4052 149.869 main 415 415 O_____P__PP___ jtwc_sh SH101945 -14.5000 149.800 -1 -14.2931 149.971 -14.2700 150.011 TC -14.4626 149.761 7 5 248
1945072S14151 1945 16 SP EA NOT_NAMED 1945-03-13 21:00:00 TS -14.4753 149.644 main 430 430 P_____P__PP___ SH101945 -14.5650 149.520 -1 -14.3589 149.805 -14.3375 149.851 TC -14.5501 149.527 7 4 253
1945072S14151 1945 16 SP EA NOT_NAMED 1945-03-13 23:00:00 TS -14.5114 149.514 999 bom main 432 432 P_____O__PO___ SH101945 -14.5886 149.360 -1 -14.4000 149.700 999 -14.3797 149.749 TC -14.6000 149.400 7 4 253
1945072S14151 1945 16 SP EA NOT_NAMED 1945-03-14 00:00:00 TS -14.5288 149.461 main 432 432 O_____P__OP___ jtwc_sh SH101945 -14.6000 149.300 -1 -14.4196 149.650 -14.4000 149.700 TC 30 999 -14.6245 149.353 7 3 245
1945072S14151 1945 16 SP EA NOT_NAMED 1945-03-14 03:00:00 TS -14.5840 149.352 main 436 426 P_____P__PP___ SH101945 -14.6500 149.220 -1 -14.4753 149.508 -14.4572 149.560 TC -14.6877 149.250 7 2 239
1945072S14151 1945 16 SP EA NOT_NAMED 1945-03-14 06:00:00 TS -14.6349 149.279 main 426 413 O_____P__PP___ jtwc_sh SH101945 -14.7000 149.200 -1 -14.5269 149.377 -14.5101 149.431 TC -14.7377 149.187 7 2 235
1945072S14151 1945 16 SP EA NOT_NAMED 1945-03-14 09:00:00 TS -14.6856 149.204 main 413 413 P_____P__PP___ SH101945 -14.7575 149.158 -1 -14.5757 149.257 -14.5597 149.310 TC -14.7775 149.137 7 2 237
1945072S14151 1945 16 SP EA NOT_NAMED 1945-03-14 11:00:00 TS -14.7154 149.152 main 413 403 P_____P__PO___ SH101945 -14.7890 149.122 -1 -14.6072 149.182 -14.5915 149.234 TC -14.8000 149.100 7 2 241
1945072S14151 1945 16 SP EA NOT_NAMED 1945-03-14 12:00:00 TS -14.7281 149.123 main 403 390 O_____P__PP___ jtwc_sh SH101945 -14.8000 149.100 -1 -14.6228 149.146 -14.6072 149.197 TC -14.8105 149.070 7 2 254
1945072S14151 1945 16 SP EA NOT_NAMED 1945-03-14 15:00:00 TS -14.7518 149.025 main 390 380 P_____P__PP___ SH101945 -14.8000 149.007 -1 -14.6694 149.043 -14.6539 149.091 TC -14.8358 148.975 7 2 256
1945072S14151 1945 16 SP EA NOT_NAMED 1945-03-14 18:00:00 TS -14.7749 148.922 main 380 369 O_____P__PP___ jtwc_sh SH101945 -14.8000 148.900 -1 -14.7167 148.948 -14.7008 148.990 TC -14.8570 148.873 7 2 252
1945072S14151 1945 16 SP EA NOT_NAMED 1945-03-14 21:00:00 TS -14.8160 148.824 main 369 369 P_____P__PP___ SH101945 -14.8425 148.800 -1 -14.7657 148.857 -14.7491 148.894 TC -14.8802 148.769 7 2 245
1945072S14151 1945 16 SP EA NOT_NAMED 1945-03-14 23:00:00 TS -14.8488 148.760 998 bom main 369 357 P_____O__PO___ SH101945 -14.8807 148.733 -1 -14.8000 148.800 998 -14.7827 148.831 TC -14.9000 148.700 7 2 243
1945072S14151 1945 16 SP EA NOT_NAMED 1945-03-15 00:00:00 TS -14.8665 148.727 main 357 346 O_____P__OP___ jtwc_sh SH101945 -14.9000 148.700 -1 -14.8190 148.773 -14.8000 148.800 TC 35 998 -14.9133 148.664 7 2 239
1945072S14151 1945 16 SP EA NOT_NAMED 1945-03-15 03:00:00 TS -14.9188 148.633 main 346 334 P_____P__PP___ SH101945 -14.9500 148.600 -1 -14.8774 148.698 -14.8577 148.713 TC -14.9588 148.556 7 2 239
1945072S14151 1945 16 SP EA NOT_NAMED 1945-03-15 06:00:00 TS -14.9731 148.542 main 334 334 O_____P__PP___ jtwc_sh SH101945 -15.0000 148.500 -1 -14.9379 148.630 -14.9176 148.631 TC -15.0101 148.451 7 2 238
1945072S14151 1945 16 SP EA NOT_NAMED 1945-03-15 09:00:00 TS -15.0287 148.451 main 334 322 P_____P__PP___ SH101945 -15.0500 148.393 -1 -15.0000 148.566 -14.9792 148.552 TC -15.0641 148.355 7 2 237
1945072S14151 1945 16 SP EA NOT_NAMED 1945-03-15 11:00:00 TS -15.0660 148.395 main 322 322 P_____P__PO___ SH101945 -15.0833 148.328 -1 -15.0421 148.522 -15.0210 148.499 TC -15.1000 148.300 7 2 235
1945072S14151 1945 16 SP EA NOT_NAMED 1945-03-15 12:00:00 TS -15.0844 148.370 main 322 312 O_____P__PP___ jtwc_sh SH101945 -15.1000 148.300 -1 -15.0633 148.500 -15.0422 148.472 TC -15.1167 148.279 7 2 231
1945072S14151 1945 16 SP EA NOT_NAMED 1945-03-15 15:00:00 TS -15.1401 148.307 main 312 311 P_____P__PP___ SH101945 -15.1500 148.242 -1 -15.1276 148.431 -15.1061 148.390 TC -15.1666 148.228 7 2 227
1945072S14151 1945 16 SP EA NOT_NAMED 1945-03-15 18:00:00 TS -15.1959 148.249 main 300 300 O_____P__PP___ jtwc_sh SH101945 -15.2000 148.200 -1 -15.1922 148.354 -15.1707 148.303 TC -15.2166 148.186 7 2 227
1945072S14151 1945 16 SP EA NOT_NAMED 1945-03-15 21:00:00 TS -15.2518 148.186 main 300 289 P_____P__PP___ SH101945 -15.2500 148.158 -1 -15.2570 148.266 -15.2354 148.207 TC -15.2666 148.139 7 2 229
1945072S14151 1945 16 SP EA NOT_NAMED 1945-03-15 23:00:00 TS -15.2890 148.136 994 bom main 289 289 P_____O__PO___ SH101945 -15.2833 148.122 -1 -15.3000 148.200 994 4 -15.2785 148.137 TC -15.3000 148.100 7 2 231
1945072S14151 1945 16 SP EA NOT_NAMED 1945-03-16 00:00:00 TS -15.3079 148.109 main 289 278 O_____P__OP___ jtwc_sh SH101945 -15.3000 148.100 -1 -15.3242 148.168 -15.3000 148.100 TC 40 994 -15.3154 148.077 7 2 237
1945072S14151 1945 16 SP EA NOT_NAMED 1945-03-16 03:00:00 TS -15.3665 148.015 main 278 268 P_____P__PP___ SH101945 -15.3500 148.008 -1 -15.3982 148.066 -15.3733 147.996 TC -15.3612 147.999 7 2 239
1945072S14151 1945 16 SP EA NOT_NAMED 1945-03-16 06:00:00 TS -15.4259 147.908 main 268 255 O_____P__PP___ jtwc_sh SH101945 -15.4000 147.900 -1 -15.4729 147.953 -15.4480 147.885 TC -15.4086 147.904 7 2 241
1945072S14151 1945 16 SP EA NOT_NAMED 1945-03-16 09:00:00 TS -15.4827 147.799 main 255 244 P_____P__PP___ SH101945 -15.4425 147.807 -1 -15.5459 147.828 -15.5218 147.764 TC -15.4609 147.789 7 3 242
1945072S14151 1945 16 SP EA NOT_NAMED 1945-03-16 11:00:00 TS -15.5235 147.718 main 244 244 P_____P__PO___ SH101945 -15.4776 147.739 -1 -15.5926 147.736 -15.5694 147.675 TC -15.5000 147.700 7 3 242
1945072S14151 1945 16 SP EA NOT_NAMED 1945-03-16 12:00:00 TS -15.5468 147.674 main 244 221 O_____P__PP___ jtwc_sh SH101945 -15.5000 147.700 -1 -15.6151 147.687 -15.5925 147.629 TC -15.5266 147.655 7 3 239
1945072S14151 1945 16 SP EA NOT_NAMED 1945-03-16 15:00:00 TS -15.6300 147.531 main 221 208 P_____P__PP___ SH101945 -15.6000 147.573 -1 -15.6782 147.528 -15.6580 147.477 TC -15.6138 147.507 7 3 242
1945072S14151 1945 16 SP EA NOT_NAMED 1945-03-16 18:00:00 TS -15.7098 147.358 main 208 184 O_____P__PP___ jtwc_sh SH101945 -15.7000 147.400 -1 -15.7331 147.349 -15.7158 147.308 TC -15.7002 147.336 7 4 249
1945072S14151 1945 16 SP EA NOT_NAMED 1945-03-16 21:00:00 TS -15.7683 147.147 main 174 163 P_____P__PP___ SH101945 -15.7650 147.165 -1 -15.7774 147.148 -15.7639 147.116 TC -15.7701 147.142 7 4 257
1945072S14151 1945 16 SP EA NOT_NAMED 1945-03-16 23:00:00 TS -15.7946 146.990 994 bom main 163 153 P_____O__PO___ SH101945 -15.7917 146.989 -1 -15.8000 147.000 994 -15.7895 146.975 TC -15.8000 147.000 7 5 261
1945072S14151 1945 16 SP EA NOT_NAMED 1945-03-17 00:00:00 TS -15.8030 146.908 main 153 132 O_____P__OP___ jtwc_sh SH101945 -15.8000 146.900 -1 -15.8072 146.914 -15.8000 146.900 TC 40 994 -15.8075 146.927 7 5 266
1945072S14151 1945 16 SP EA NOT_NAMED 1945-03-17 03:00:00 TS -15.8154 146.651 main 132 101 P_____P__PP___ SH101945 -15.8150 146.650 -1 -15.8204 146.635 -15.8173 146.631 TC -15.8092 146.690 7 5 270
1945072S14151 1945 16 SP EA NOT_NAMED 1945-03-17 06:00:00 TS -15.8061 146.382 main 101 72 O_____P__PP___ jtwc_sh SH101945 -15.8000 146.400 -1 -15.8233 146.336 -15.8232 146.337 TC -15.7841 146.436 7 5 274
1945072S14151 1945 16 SP EA NOT_NAMED 1945-03-17 09:00:00 TS -15.7818 146.108 main 72 54 P_____P__PP___ SH101945 -15.7650 146.150 -1 -15.8192 146.032 -15.8211 146.033 TC -15.7386 146.175 7 5 276
1945072S14151 1945 16 SP EA NOT_NAMED 1945-03-17 11:00:00 TS -15.7562 145.926 main 54 54 P_____P__PO___ SH101945 -15.7250 145.983 -1 -15.8142 145.833 -15.8168 145.832 TC -15.7000 146.000 7 5 279
1945072S14151 1945 16 SP EA NOT_NAMED 1945-03-17 12:00:00 TS -15.7410 145.839 main 48 30 O_____P__PP___ jtwc_sh SH101945 -15.7000 145.900 -1 -15.8115 145.736 -15.8142 145.733 TC -15.6791 145.923 7 5 283
1945072S14151 1945 16 SP EA NOT_NAMED 1945-03-17 15:00:00 TS -15.6828 145.581 main 30 10 P_____P__PP___ SH101945 -15.6000 145.650 -1 -15.8036 145.463 -15.8060 145.451 TC -15.6046 145.694 7 5 284
1945072S14151 1945 16 SP EA NOT_NAMED 1945-03-17 17:00:00 TS -15.6423 145.417 bom main 10 10 P_____O__PP___ SH101945 -15.5302 145.483 -1 -15.8000 145.300 -15.8016 145.279 TC -15.5496 145.537 7 5 284
1945072S14151 1945 16 SP EA NOT_NAMED 1945-03-17 18:00:00 TS -15.6245 145.338 main 0 0 O_____P__OP___ jtwc_sh SH101945 -15.5000 145.400 -1 -15.8009 145.234 -15.8000 145.200 TC -15.5219 145.456 7 4 283
1945072S14151 1945 16 SP EA NOT_NAMED 1945-03-17 21:00:00 TS -15.5747 145.118 main 0 0 P_____P__PP___ SH101945 -15.4424 145.165 -1 -15.8023 145.043 -15.7986 144.989 TC -15.4436 145.195 7 4 283
1945072S14151 1945 16 SP EA NOT_NAMED 1945-03-17 23:00:00 TS -15.5395 144.960 1000 bom main 0 0 P_____O__PO___ SH101945 -15.4140 144.995 -1 -15.8000 144.900 1000 -15.7994 144.862 TC -15.4000 145.000 7 5 285
1945072S14151 1945 16 SP EA NOT_NAMED 1945-03-18 00:00:00 TS -15.5123 144.875 main 0 0 O_____P__OP___ jtwc_sh SH101945 -15.4000 144.900 -1 -15.7972 144.818 -15.8000 144.800 TC 30 1000 -15.3799 144.900 7 6 283
1945072S14151 1945 16 SP EA NOT_NAMED 1945-03-18 03:00:00 TS -15.4490 144.566 main 0 0 P_____P___P___ SH101945 -15.3424 144.580 -1 -15.7823 144.527 TC -15.3287 144.577 7 7 279
1945072S14151 1945 16 SP EA NOT_NAMED 1945-03-18 06:00:00 TS -15.4135 144.198 main 0 0 O_____P___P___ jtwc_sh SH101945 -15.3000 144.200 -1 -15.7581 144.177 -15.2960 144.213 7 8 274
1945072S14151 1945 16 SP EA NOT_NAMED 1945-03-18 09:00:00 TS -15.3960 143.781 main 0 0 P_____P___P___ SH101945 -15.2849 143.772 -1 -15.7258 143.776 -15.2882 143.803 7 8 271
1945072S14151 1945 16 SP EA NOT_NAMED 1945-03-18 11:00:00 TS -15.3959 143.477 main 0 0 P_____P___O___ SH101945 -15.2916 143.461 -1 -15.7002 143.485 -15.3000 143.500 7 9 268
1945072S14151 1945 16 SP EA NOT_NAMED 1945-03-18 12:00:00 TS -15.4137 143.321 main 0 0 O_____P___P___ jtwc_sh SH101945 -15.3000 143.300 -1 -15.6863 143.334 -15.3116 143.339 7 9 265
1945072S14151 1945 16 SP EA NOT_NAMED 1945-03-18 15:00:00 TS -15.4500 142.829 main 0 0 P_____P___P___ SH101945 -15.3427 142.805 -1 -15.6409 142.858 -15.3665 142.824 7 10 266
1945072S14151 1945 16 SP EA NOT_NAMED 1945-03-18 18:00:00 TS -15.4882 142.311 main 0 0 O_____P___P___ jtwc_sh SH101945 -15.4000 142.300 -1 -15.5907 142.359 -15.4444 142.270 7 10 265
1945072S14151 1945 16 SP EA NOT_NAMED 1945-03-18 21:00:00 NR -15.5365 141.769 main 0 0 ______P___P___ SH101945 -1 -15.5370 141.846 -15.5359 141.692 7 11 266
1945072S14151 1945 16 SP EA NOT_NAMED 1945-03-18 23:00:00 NR -15.5500 141.400 1000 bom main 10 ______O___O___ SH101945 -1 -15.5000 141.500 1000 -15.6000 141.300 7 11 268

Digital Typhoon Data and Search

About IBTrACS Database

This database is a web-friendly format of International Best Track Archive for Climate Stewardship (IBTrACS), a global best track data archive curated by NOAA dating back to 1842.

Updated: 2021-10-08